createdAt,value
2022-12-18T00:00:40.486Z,77.28
2022-12-18T00:02:58.530Z,76.90
2022-12-18T00:05:15.884Z,76.52
2022-12-18T00:07:32.934Z,76.54
2022-12-18T00:09:52.753Z,76.95
2022-12-18T00:14:33.201Z,77.09
2022-12-18T00:16:50.129Z,76.96
2022-12-18T00:19:07.198Z,77.18
2022-12-18T00:21:24.179Z,77.55
2022-12-18T00:23:42.883Z,77.14
2022-12-18T00:26:00.103Z,77.46
2022-12-18T00:28:17.145Z,77.50
2022-12-18T00:30:34.451Z,77.96
2022-12-18T00:32:51.384Z,77.63
2022-12-18T00:35:08.453Z,77.94
2022-12-18T00:37:25.543Z,78.08
2022-12-18T00:39:42.504Z,77.83
2022-12-18T00:41:59.372Z,78.02
2022-12-18T00:44:16.246Z,77.73
2022-12-18T00:46:33.568Z,77.48
2022-12-18T00:48:50.528Z,77.26
2022-12-18T00:51:08.601Z,77.51
2022-12-18T00:53:25.554Z,77.59
2022-12-18T00:55:42.606Z,77.71
2022-12-18T00:57:59.746Z,77.49
2022-12-18T01:00:16.764Z,77.33
2022-12-18T01:02:33.922Z,76.97
2022-12-18T01:04:50.950Z,77.27
2022-12-18T01:07:08.215Z,77.36
2022-12-18T01:09:26.390Z,76.98
2022-12-18T01:11:43.545Z,77.66
2022-12-18T01:14:00.625Z,77.68
2022-12-18T01:16:17.752Z,77.67
2022-12-18T01:18:35.139Z,77.49
2022-12-18T01:20:52.125Z,77.59
2022-12-18T01:23:10.016Z,77.36
2022-12-18T01:25:27.290Z,76.96
2022-12-18T01:27:45.289Z,77.43
2022-12-18T01:30:02.357Z,77.03
2022-12-18T01:32:19.316Z,76.62
2022-12-18T01:34:36.715Z,77.21
2022-12-18T01:36:53.937Z,77.38
2022-12-18T01:39:10.806Z,77.40
2022-12-18T01:41:28.015Z,77.62
2022-12-18T01:43:45.314Z,77.16
2022-12-18T01:46:03.605Z,77.87
2022-12-18T01:48:20.920Z,77.66
2022-12-18T01:50:37.997Z,78.06
2022-12-18T01:52:55.337Z,77.92
2022-12-18T01:55:13.365Z,77.84
2022-12-18T01:57:30.250Z,78.18
2022-12-18T01:59:47.223Z,78.25
2022-12-18T02:02:04.281Z,78.16
2022-12-18T02:04:21.628Z,78.60
2022-12-18T02:06:38.551Z,78.28
2022-12-18T02:08:55.876Z,78.62
2022-12-18T02:11:12.929Z,78.66
2022-12-18T02:13:29.855Z,78.21
2022-12-18T02:15:46.868Z,78.67
2022-12-18T02:18:03.872Z,78.67
2022-12-18T02:20:20.950Z,78.24
2022-12-18T02:22:37.981Z,77.64
2022-12-18T02:24:55.228Z,78.60
2022-12-18T02:27:12.499Z,78.43
2022-12-18T02:29:29.422Z,78.96
2022-12-18T02:31:46.685Z,79.16
2022-12-18T02:34:03.959Z,78.90
2022-12-18T02:36:21.004Z,78.94
2022-12-18T02:38:38.089Z,79.52
2022-12-18T02:40:54.997Z,79.70
2022-12-18T02:43:12.263Z,80.19
2022-12-18T02:45:29.346Z,80.77
2022-12-18T02:47:46.469Z,81.24
2022-12-18T02:50:03.478Z,81.58
2022-12-18T02:52:20.745Z,81.70
2022-12-18T02:54:37.771Z,81.74
2022-12-18T02:56:55.089Z,82.20
2022-12-18T02:59:12.120Z,82.20
2022-12-18T03:01:29.189Z,82.47
2022-12-18T03:03:46.480Z,82.48
2022-12-18T03:06:03.347Z,82.78
2022-12-18T03:08:21.503Z,82.18
2022-12-18T03:10:39.493Z,82.53
2022-12-18T03:12:56.719Z,82.14
2022-12-18T03:15:17.653Z,82.30
2022-12-18T03:17:34.915Z,82.86
2022-12-18T03:19:52.126Z,82.67
2022-12-18T03:22:09.026Z,82.78
2022-12-18T03:24:25.928Z,83.15
2022-12-18T03:26:43.167Z,83.67
2022-12-18T03:29:00.091Z,83.91
2022-12-18T03:31:17.028Z,83.80
2022-12-18T03:33:35.439Z,84.72
2022-12-18T03:35:52.332Z,84.17
2022-12-18T03:38:09.334Z,84.56
2022-12-18T03:40:26.602Z,84.17
2022-12-18T03:42:43.881Z,84.22
2022-12-18T03:45:01.115Z,84.29
2022-12-18T03:47:18.173Z,84.30
2022-12-18T03:49:35.187Z,84.48
2022-12-18T03:51:52.218Z,84.53
2022-12-18T03:54:09.450Z,84.89
2022-12-18T03:56:26.647Z,84.75
2022-12-18T03:58:43.967Z,84.96
2022-12-18T04:01:01.559Z,84.53
2022-12-18T04:03:20.622Z,84.48
2022-12-18T04:05:40.940Z,84.09
2022-12-18T04:07:59.234Z,84.29
2022-12-18T04:10:16.168Z,84.48
2022-12-18T04:12:33.441Z,84.49
2022-12-18T04:14:50.681Z,84.64
2022-12-18T04:17:07.873Z,85.05
2022-12-18T04:19:24.789Z,84.86
2022-12-18T04:21:41.785Z,85.09
2022-12-18T04:23:58.852Z,85.61
2022-12-18T04:26:16.207Z,85.16
2022-12-18T04:28:33.107Z,85.27
2022-12-18T04:30:50.452Z,85.74
2022-12-18T04:33:07.558Z,85.34
2022-12-18T04:35:24.424Z,85.34
2022-12-18T04:37:41.728Z,85.29
2022-12-18T04:39:58.710Z,85.02
2022-12-18T04:42:15.946Z,85.12
2022-12-18T04:44:33.376Z,84.86
2022-12-18T04:46:50.401Z,85.01
2022-12-18T04:49:08.910Z,85.15
2022-12-18T04:51:26.863Z,84.92
2022-12-18T04:53:44.189Z,84.87
2022-12-18T04:56:01.455Z,85.46
2022-12-18T04:58:18.749Z,85.62
2022-12-18T05:00:35.741Z,85.18
2022-12-18T05:02:53.173Z,85.27
2022-12-18T05:05:10.617Z,85.74
2022-12-18T05:07:27.502Z,85.34
2022-12-18T05:09:44.438Z,85.81
2022-12-18T05:12:02.155Z,85.53
2022-12-18T05:14:20.215Z,85.57
2022-12-18T05:16:37.415Z,85.47
2022-12-18T05:18:54.401Z,85.28
2022-12-18T05:21:11.468Z,85.53
2022-12-18T05:23:28.775Z,85.19
2022-12-18T05:25:45.810Z,85.44
2022-12-18T05:28:03.106Z,85.69
2022-12-18T05:30:19.995Z,85.30
2022-12-18T05:32:37.032Z,85.55
2022-12-18T05:34:54.090Z,85.82
2022-12-18T05:37:12.137Z,84.95
2022-12-18T05:39:30.128Z,85.80
2022-12-18T05:41:47.389Z,85.48
2022-12-18T05:44:04.387Z,85.57
2022-12-18T05:46:22.875Z,85.45
2022-12-18T05:48:39.954Z,84.87
2022-12-18T05:50:56.890Z,84.99
2022-12-18T05:53:13.857Z,84.52
2022-12-18T05:55:31.877Z,84.94
2022-12-18T05:57:49.230Z,85.29
2022-12-18T06:00:06.355Z,84.83
2022-12-18T06:02:23.474Z,85.01
2022-12-18T06:04:40.741Z,85.56
2022-12-18T06:06:57.589Z,85.42
2022-12-18T06:09:14.633Z,85.59
2022-12-18T06:11:31.843Z,84.95
2022-12-18T06:13:48.764Z,85.48
2022-12-18T06:16:06.032Z,85.35
2022-12-18T06:18:23.216Z,85.07
2022-12-18T06:20:40.286Z,85.26
2022-12-18T06:22:57.306Z,84.83
2022-12-18T06:25:14.317Z,85.25
2022-12-18T06:27:31.597Z,85.29
2022-12-18T06:29:48.572Z,84.90
2022-12-18T06:32:05.823Z,84.87
2022-12-18T06:34:22.881Z,84.64
2022-12-18T06:36:40.158Z,84.99
2022-12-18T06:38:57.452Z,85.17
2022-12-18T06:41:14.511Z,85.32
2022-12-18T06:43:31.594Z,85.25
2022-12-18T06:45:48.911Z,85.44
2022-12-18T06:48:06.336Z,85.11
2022-12-18T06:50:23.602Z,85.30
2022-12-18T06:52:40.972Z,85.44
2022-12-18T06:54:59.211Z,85.48
2022-12-18T06:57:16.504Z,85.52
2022-12-18T06:59:33.587Z,85.22
2022-12-18T07:01:51.765Z,85.11
2022-12-18T07:04:08.964Z,85.36
2022-12-18T07:06:25.991Z,85.33
2022-12-18T07:08:43.363Z,85.48
2022-12-18T07:11:00.421Z,85.08
2022-12-18T07:13:17.757Z,85.58
2022-12-18T07:15:34.722Z,85.33
2022-12-18T07:17:51.721Z,85.61
2022-12-18T07:20:09.993Z,85.62
2022-12-18T07:22:27.306Z,85.53
2022-12-18T07:24:44.645Z,85.54
2022-12-18T07:27:01.971Z,85.17
2022-12-18T07:29:19.038Z,85.11
2022-12-18T07:31:36.196Z,85.71
2022-12-18T07:33:53.077Z,85.84
2022-12-18T07:36:10.017Z,85.72
2022-12-18T07:38:26.952Z,85.65
2022-12-18T07:40:44.589Z,85.36
2022-12-18T07:43:01.768Z,85.77
2022-12-18T07:45:18.989Z,85.03
2022-12-18T07:47:35.960Z,85.56
2022-12-18T07:49:53.326Z,85.55
2022-12-18T07:52:10.364Z,85.12
2022-12-18T07:54:27.407Z,85.55
2022-12-18T07:56:44.643Z,84.93
2022-12-18T07:59:01.577Z,85.48
2022-12-18T08:01:18.782Z,85.19
2022-12-18T08:03:37.356Z,85.09
2022-12-18T08:05:55.480Z,85.45
2022-12-18T08:08:12.834Z,84.91
2022-12-18T08:10:30.103Z,85.22
2022-12-18T08:12:48.086Z,85.28
2022-12-18T08:15:05.127Z,85.18
2022-12-18T08:17:23.627Z,85.21
2022-12-18T08:19:40.711Z,85.12
2022-12-18T08:21:57.768Z,85.43
2022-12-18T08:24:14.835Z,85.40
2022-12-18T08:26:32.201Z,85.75
2022-12-18T08:28:49.248Z,85.03
2022-12-18T08:31:07.750Z,85.20
2022-12-18T08:33:25.933Z,85.52
2022-12-18T08:35:45.975Z,84.89
2022-12-18T08:38:03.333Z,85.02
2022-12-18T08:40:20.547Z,84.09
2022-12-18T08:42:37.559Z,84.34
2022-12-18T08:44:54.457Z,84.49
2022-12-18T08:47:11.736Z,84.66
2022-12-18T08:49:28.805Z,84.79
2022-12-18T08:51:45.829Z,84.86
2022-12-18T08:54:02.803Z,84.86
2022-12-18T08:56:21.407Z,84.51
2022-12-18T08:58:39.744Z,84.38
2022-12-18T09:00:56.864Z,84.02
2022-12-18T09:03:15.018Z,83.92
2022-12-18T09:05:31.914Z,84.35
2022-12-18T09:07:48.851Z,83.80
2022-12-18T09:10:05.864Z,84.10
2022-12-18T09:12:22.999Z,84.03
2022-12-18T09:14:40.316Z,83.87
2022-12-18T09:16:58.491Z,83.36
2022-12-18T09:19:15.473Z,83.09
2022-12-18T09:21:34.786Z,83.01
2022-12-18T09:23:54.475Z,81.99
2022-12-18T09:26:11.439Z,83.20
2022-12-18T09:28:28.525Z,83.35
2022-12-18T09:30:46.859Z,84.04
2022-12-18T09:33:03.929Z,83.17
2022-12-18T09:35:21.210Z,82.71
2022-12-18T09:37:38.190Z,83.19
2022-12-18T09:39:55.131Z,82.70
2022-12-18T09:42:12.464Z,82.88
2022-12-18T09:44:29.811Z,83.20
2022-12-18T09:46:47.286Z,82.75
2022-12-18T09:49:04.368Z,83.09
2022-12-18T09:51:22.604Z,82.91
2022-12-18T09:53:39.554Z,82.48
2022-12-18T09:55:56.891Z,82.62
2022-12-18T09:58:14.238Z,82.70
2022-12-18T10:00:31.162Z,82.82
2022-12-18T10:02:48.330Z,83.27
2022-12-18T10:05:05.700Z,82.87
2022-12-18T10:07:23.261Z,82.28
2022-12-18T10:09:40.707Z,82.89
2022-12-18T10:12:00.741Z,82.52
2022-12-18T10:14:18.399Z,82.09
2022-12-18T10:16:38.546Z,82.50
2022-12-18T10:18:56.131Z,82.69
2022-12-18T10:21:13.342Z,81.99
2022-12-18T10:23:31.282Z,81.63
2022-12-18T10:25:48.415Z,81.63
2022-12-18T10:28:05.735Z,81.98
2022-12-18T10:30:22.968Z,81.16
2022-12-18T10:32:40.247Z,81.43
2022-12-18T10:35:00.392Z,82.26
2022-12-18T10:37:18.115Z,81.58
2022-12-18T10:39:35.664Z,80.23
2022-12-18T10:41:52.752Z,79.98
2022-12-18T10:44:10.142Z,80.51
2022-12-18T10:46:28.224Z,81.12
2022-12-18T10:48:46.367Z,80.21
2022-12-18T10:51:12.580Z,80.42
2022-12-18T10:53:30.409Z,81.94
2022-12-18T10:55:47.611Z,82.24
2022-12-18T10:58:04.573Z,81.97
2022-12-18T11:00:21.833Z,81.92
2022-12-18T11:02:39.086Z,80.57
2022-12-18T11:04:56.341Z,81.32
2022-12-18T11:07:13.846Z,81.28
2022-12-18T11:09:30.898Z,80.81
2022-12-18T11:11:47.885Z,81.32
2022-12-18T11:14:04.899Z,81.08
2022-12-18T11:16:22.923Z,81.33
2022-12-18T11:18:40.446Z,81.37
2022-12-18T11:20:58.898Z,81.48
2022-12-18T11:23:15.966Z,81.99
2022-12-18T11:25:35.673Z,81.59
2022-12-18T11:27:53.193Z,81.82
2022-12-18T11:30:10.712Z,81.62
2022-12-18T11:32:28.865Z,81.42
2022-12-18T11:34:45.927Z,81.47
2022-12-18T11:37:02.833Z,81.06
2022-12-18T11:39:22.751Z,81.52
2022-12-18T11:41:40.576Z,81.66
2022-12-18T11:43:57.652Z,81.64
2022-12-18T11:46:19.404Z,81.91
2022-12-18T11:48:37.265Z,81.82
2022-12-18T11:50:54.256Z,80.95
2022-12-18T11:53:11.268Z,81.66
2022-12-18T11:55:28.656Z,81.48
2022-12-18T11:57:47.007Z,80.99
2022-12-18T12:00:03.991Z,80.66
2022-12-18T12:02:21.543Z,80.83
2022-12-18T12:04:38.587Z,80.50
2022-12-18T12:07:02.747Z,81.31
2022-12-18T12:09:20.019Z,81.85
2022-12-18T12:11:37.295Z,81.38
2022-12-18T12:13:54.397Z,80.78
2022-12-18T12:16:11.866Z,81.51
2022-12-18T12:18:29.771Z,81.20
2022-12-18T12:20:46.860Z,82.18
2022-12-18T12:23:04.846Z,82.02
2022-12-18T12:25:22.193Z,82.08
2022-12-18T12:27:39.223Z,81.16
2022-12-18T12:29:56.695Z,81.43
2022-12-18T12:32:13.972Z,81.87
2022-12-18T12:34:30.934Z,80.96
2022-12-18T12:36:47.887Z,81.44
2022-12-18T12:39:04.950Z,81.18
2022-12-18T12:41:22.024Z,81.50
2022-12-18T12:43:44.632Z,81.89
2022-12-18T12:46:07.580Z,82.47
2022-12-18T12:48:25.213Z,82.42
2022-12-18T12:50:42.217Z,82.90
2022-12-18T12:53:00.871Z,81.97
2022-12-18T12:55:18.178Z,81.45
2022-12-18T12:57:36.555Z,81.96
2022-12-18T12:59:53.650Z,81.66
2022-12-18T13:02:11.198Z,81.06
2022-12-18T13:04:29.702Z,81.98
2022-12-18T13:06:46.721Z,82.34
2022-12-18T13:09:04.216Z,82.10
2022-12-18T13:11:21.319Z,81.83
2022-12-18T13:13:38.891Z,81.74
2022-12-18T13:15:56.149Z,82.24
2022-12-18T13:18:13.159Z,81.63
2022-12-18T13:20:30.272Z,82.36
2022-12-18T13:22:47.288Z,82.25
2022-12-18T13:25:04.354Z,82.87
2022-12-18T13:27:21.289Z,83.01
2022-12-18T13:29:39.042Z,82.89
2022-12-18T13:31:56.092Z,82.66
2022-12-18T13:34:29.522Z,82.14
2022-12-18T13:36:47.159Z,82.70
2022-12-18T13:39:04.758Z,82.97
2022-12-18T13:41:22.075Z,83.27
2022-12-18T13:43:39.923Z,82.53
2022-12-18T13:45:57.058Z,82.45
2022-12-18T13:48:14.073Z,83.14
2022-12-18T13:50:35.816Z,82.39
2022-12-18T13:52:53.181Z,83.09
2022-12-18T13:55:10.477Z,83.67
2022-12-18T13:57:28.090Z,82.92
2022-12-18T13:59:45.713Z,83.47
2022-12-18T14:02:04.441Z,83.64
2022-12-18T14:04:21.676Z,83.18
2022-12-18T14:06:39.034Z,82.89
2022-12-18T14:08:55.932Z,82.38
2022-12-18T14:11:12.868Z,83.14
2022-12-18T14:13:31.629Z,83.14
2022-12-18T14:15:48.994Z,83.21
2022-12-18T14:18:06.229Z,83.15
2022-12-18T14:20:23.224Z,83.89
2022-12-18T14:22:40.223Z,83.93
2022-12-18T14:24:58.101Z,83.99
2022-12-18T14:27:16.181Z,83.84
2022-12-18T14:29:33.274Z,84.16
2022-12-18T14:31:50.513Z,84.19
2022-12-18T14:34:09.320Z,84.12
2022-12-18T14:36:26.309Z,83.72
2022-12-18T14:38:43.289Z,84.15
2022-12-18T14:41:01.182Z,83.96
2022-12-18T14:43:18.277Z,83.89
2022-12-18T14:45:41.814Z,83.75
2022-12-18T14:48:00.166Z,84.02
2022-12-18T14:50:17.461Z,83.57
2022-12-18T14:52:34.365Z,83.83
2022-12-18T14:54:51.264Z,83.90
2022-12-18T14:57:08.540Z,83.46
2022-12-18T14:59:26.267Z,83.42
2022-12-18T15:01:43.492Z,84.01
2022-12-18T15:04:00.629Z,83.59
2022-12-18T15:06:17.615Z,84.47
2022-12-18T15:08:35.641Z,84.53
2022-12-18T15:10:53.956Z,84.30
2022-12-18T15:13:10.990Z,84.30
2022-12-18T15:15:29.048Z,84.21
2022-12-18T15:17:46.002Z,84.67
2022-12-18T15:20:02.973Z,84.31
2022-12-18T15:22:19.954Z,84.64
2022-12-18T15:24:37.081Z,84.77
2022-12-18T15:26:54.051Z,84.82
2022-12-18T15:29:15.623Z,84.94
2022-12-18T15:31:33.349Z,85.11
2022-12-18T15:33:50.690Z,85.01
2022-12-18T15:36:07.705Z,84.70
2022-12-18T15:38:24.651Z,84.99
2022-12-18T15:40:41.680Z,85.37
2022-12-18T15:42:58.715Z,85.12
2022-12-18T15:45:15.655Z,84.95
2022-12-18T15:47:32.798Z,84.96
2022-12-18T15:49:51.179Z,85.33
2022-12-18T15:52:09.915Z,85.19
2022-12-18T15:54:26.995Z,85.19
2022-12-18T15:56:43.959Z,85.02
2022-12-18T15:59:01.215Z,85.33
2022-12-18T16:01:18.872Z,85.52
2022-12-18T16:03:37.246Z,85.34
2022-12-18T16:05:54.322Z,85.65
2022-12-18T16:08:12.346Z,84.88
2022-12-18T16:10:30.264Z,84.88
2022-12-18T16:12:47.547Z,85.13
2022-12-18T16:15:04.876Z,84.89
2022-12-18T16:17:23.175Z,84.90
2022-12-18T16:19:40.176Z,84.73
2022-12-18T16:21:57.107Z,85.49
2022-12-18T16:24:14.202Z,85.56
2022-12-18T16:26:31.155Z,85.41
2022-12-18T16:28:48.660Z,84.47
2022-12-18T16:31:05.696Z,84.97
2022-12-18T16:33:23.017Z,85.03
2022-12-18T16:35:39.932Z,85.20
2022-12-18T16:37:56.985Z,84.38
2022-12-18T16:40:15.050Z,84.87
2022-12-18T16:42:32.120Z,84.94
2022-12-18T16:44:49.347Z,85.01
2022-12-18T16:47:06.367Z,85.64
2022-12-18T16:49:26.029Z,85.17
2022-12-18T16:51:43.372Z,85.44
2022-12-18T16:54:00.844Z,85.44
2022-12-18T16:56:19.977Z,85.29
2022-12-18T16:58:36.971Z,85.36
2022-12-18T17:00:54.047Z,85.31
2022-12-18T17:03:11.323Z,85.28
2022-12-18T17:05:29.531Z,85.33
2022-12-18T17:07:46.647Z,85.04
2022-12-18T17:10:03.550Z,83.76
2022-12-18T17:12:20.970Z,84.85
2022-12-18T17:14:37.898Z,84.06
2022-12-18T17:17:19.704Z,84.76
2022-12-18T17:19:32.177Z,85.03
2022-12-18T17:21:49.511Z,85.29
2022-12-18T17:24:06.614Z,84.86
2022-12-18T17:26:23.681Z,85.02
2022-12-18T17:28:40.634Z,85.24
2022-12-18T17:30:57.990Z,85.70
2022-12-18T17:33:15.111Z,85.76
2022-12-18T17:35:32.864Z,85.24
2022-12-18T17:37:50.228Z,85.65
2022-12-18T17:40:07.328Z,85.41
2022-12-18T17:42:24.610Z,84.61
2022-12-18T17:44:41.659Z,85.26
2022-12-18T17:46:58.800Z,84.76
2022-12-18T17:49:15.828Z,84.52
2022-12-18T17:51:32.804Z,84.99
2022-12-18T17:53:49.708Z,84.81
2022-12-18T17:56:06.934Z,84.14
2022-12-18T17:58:24.928Z,84.69
2022-12-18T18:00:42.285Z,83.92
2022-12-18T18:02:59.456Z,84.85
2022-12-18T18:05:17.580Z,84.79
2022-12-18T18:07:34.606Z,84.68
2022-12-18T18:09:51.660Z,84.54
2022-12-18T18:12:08.975Z,84.42
2022-12-18T18:14:26.105Z,84.82
2022-12-18T18:16:45.025Z,84.55
2022-12-18T18:19:02.197Z,84.72
2022-12-18T18:21:19.138Z,84.47
2022-12-18T18:23:36.847Z,85.27
2022-12-18T18:25:56.181Z,85.04
2022-12-18T18:28:13.829Z,84.71
2022-12-18T18:30:30.889Z,85.06
2022-12-18T18:32:47.990Z,84.80
2022-12-18T18:35:06.708Z,85.15
2022-12-18T18:37:26.702Z,85.17
2022-12-18T18:39:43.746Z,84.77
2022-12-18T18:42:01.061Z,84.71
2022-12-18T18:44:18.076Z,84.68
2022-12-18T18:46:35.052Z,84.69
2022-12-18T18:48:52.667Z,85.06
2022-12-18T18:51:10.033Z,84.91
2022-12-18T18:53:28.640Z,85.10
2022-12-18T18:55:51.703Z,84.32
2022-12-18T18:58:16.243Z,84.58
2022-12-18T19:00:33.382Z,83.64
2022-12-18T19:02:52.159Z,84.41
2022-12-18T19:05:11.029Z,85.28
2022-12-18T19:07:30.745Z,84.88
2022-12-18T19:09:48.138Z,85.40
2022-12-18T19:12:05.194Z,85.01
2022-12-18T19:14:22.664Z,83.55
2022-12-18T19:16:39.744Z,85.31
2022-12-18T19:19:01.555Z,85.49
2022-12-18T19:21:19.685Z,85.49
2022-12-18T19:23:36.759Z,85.25
2022-12-18T19:26:04.239Z,85.47
2022-12-18T19:28:31.146Z,85.40
2022-12-18T19:30:48.405Z,85.55
2022-12-18T19:33:26.795Z,85.52
2022-12-18T19:35:42.630Z,85.51
2022-12-18T19:37:59.999Z,85.40
2022-12-18T19:40:17.077Z,85.45
2022-12-18T19:42:35.652Z,85.42
2022-12-18T19:44:53.103Z,85.58
2022-12-18T19:47:10.420Z,85.52
2022-12-18T19:49:27.491Z,85.30
2022-12-18T19:51:44.534Z,85.30
2022-12-18T19:54:01.997Z,85.28
2022-12-18T19:56:19.440Z,85.31
2022-12-18T19:58:36.464Z,85.46
2022-12-18T20:00:53.458Z,85.77
2022-12-18T20:03:21.637Z,85.79
2022-12-18T20:05:42.520Z,85.81
2022-12-18T20:07:59.820Z,85.13
2022-12-18T20:10:17.698Z,85.86
2022-12-18T20:12:36.260Z,85.95
2022-12-18T20:14:53.368Z,85.63
2022-12-18T20:17:10.576Z,85.59
2022-12-18T20:19:27.885Z,86.10
2022-12-18T20:21:44.959Z,85.98
2022-12-18T20:24:02.349Z,86.24
2022-12-18T20:26:19.359Z,85.82
2022-12-18T20:28:36.550Z,86.13
2022-12-18T20:30:56.235Z,86.11
2022-12-18T20:33:13.259Z,86.02
2022-12-18T20:35:30.469Z,85.80
2022-12-18T20:37:48.857Z,85.97
2022-12-18T20:40:08.143Z,86.05
2022-12-18T20:42:25.834Z,85.52
2022-12-18T20:44:44.061Z,86.06
2022-12-18T20:47:02.328Z,86.03
2022-12-18T20:49:24.372Z,86.09
2022-12-18T20:51:41.652Z,86.09
2022-12-18T20:53:58.647Z,86.05
2022-12-18T20:56:17.785Z,86.25
2022-12-18T20:58:38.603Z,85.90
2022-12-18T21:00:55.967Z,85.79
2022-12-18T21:03:13.108Z,85.93
2022-12-18T21:05:30.448Z,85.82
2022-12-18T21:07:47.481Z,86.10
2022-12-18T21:10:04.446Z,85.77
2022-12-18T21:12:21.442Z,85.77
2022-12-18T21:14:38.485Z,86.04
2022-12-18T21:16:55.783Z,85.99
2022-12-18T21:19:13.136Z,86.02
2022-12-18T21:21:30.301Z,85.91
2022-12-18T21:23:50.477Z,86.39
2022-12-18T21:26:07.672Z,86.36
2022-12-18T21:28:25.642Z,86.20
2022-12-18T21:30:42.616Z,85.95
2022-12-18T21:32:59.647Z,86.26
2022-12-18T21:35:16.668Z,86.30
2022-12-18T21:37:34.607Z,86.23
2022-12-18T21:39:51.507Z,86.43
2022-12-18T21:42:08.567Z,86.22
2022-12-18T21:44:25.937Z,86.26
2022-12-18T21:46:42.900Z,86.62
2022-12-18T21:48:59.797Z,86.31
2022-12-18T21:51:16.806Z,86.53
2022-12-18T21:53:33.785Z,86.63
2022-12-18T21:55:51.106Z,86.76
2022-12-18T21:58:07.982Z,86.67
2022-12-18T22:00:25.211Z,86.78
2022-12-18T22:02:42.326Z,86.38
2022-12-18T22:04:59.402Z,86.34
2022-12-18T22:07:16.673Z,86.24
2022-12-18T22:09:33.562Z,86.00
2022-12-18T22:11:50.648Z,86.15
2022-12-18T22:14:07.559Z,85.82
2022-12-18T22:16:25.500Z,85.98
2022-12-18T22:18:42.416Z,86.34
2022-12-18T22:20:59.629Z,86.40
2022-12-18T22:23:16.642Z,86.09
2022-12-18T22:25:33.712Z,86.18
2022-12-18T22:27:53.234Z,86.30
2022-12-18T22:30:11.188Z,86.13
2022-12-18T22:32:31.498Z,86.37
2022-12-18T22:34:48.993Z,86.30
2022-12-18T22:37:05.939Z,86.46
2022-12-18T22:39:23.271Z,86.41
2022-12-18T22:41:41.015Z,86.55
2022-12-18T22:43:58.189Z,86.08
2022-12-18T22:46:15.258Z,85.96
2022-12-18T22:48:32.290Z,86.35
2022-12-18T22:50:49.576Z,85.76
2022-12-18T22:53:07.828Z,86.24
2022-12-18T22:55:24.834Z,86.56
2022-12-18T22:57:49.067Z,86.27
2022-12-18T23:00:06.337Z,86.32
2022-12-18T23:02:24.753Z,86.13
2022-12-18T23:04:42.007Z,86.25
2022-12-18T23:06:58.917Z,86.47
2022-12-18T23:09:16.349Z,86.54
2022-12-18T23:11:33.264Z,86.29
2022-12-18T23:13:50.508Z,86.66
2022-12-18T23:16:11.188Z,86.64
2022-12-18T23:18:28.328Z,86.52
2022-12-18T23:20:45.402Z,86.39
2022-12-18T23:23:04.020Z,86.99
2022-12-18T23:25:21.297Z,86.42
2022-12-18T23:27:38.640Z,86.83
2022-12-18T23:29:55.588Z,86.94
2022-12-18T23:32:15.497Z,87.04
2022-12-18T23:34:32.393Z,87.13
2022-12-18T23:36:53.267Z,87.46
2022-12-18T23:39:24.385Z,87.36
2022-12-18T23:41:46.782Z,87.34
2022-12-18T23:44:03.817Z,87.57
2022-12-18T23:46:20.916Z,87.62
2022-12-18T23:48:37.976Z,87.28
2022-12-18T23:50:54.990Z,87.23
2022-12-18T23:53:12.021Z,87.95
2022-12-18T23:55:28.947Z,87.69
2022-12-18T23:57:46.380Z,87.57
